Time;durP1;ratioP1;P1;durP2;ratioP2;P2;SDS_P1;SDS_P2;PMS_P1;PMS_P2;Temp;Humidity;BMP_temperature;BMP_pressure;BME280_temperature;BME280_humidity;BME280_pressure;Samples;Min_cycle;Max_cycle;Signal;HPM_P1;HPM_P2
2023/11/14 00:00:30;;;;;;;24.92;3.83;;;10.30;99.90;;;;;;5023664;28;20033;-67
2023/11/14 00:02:56;;;;;;;27.65;3.78;;;10.30;99.90;;;;;;5027330;28;20032;-67
2023/11/14 00:05:22;;;;;;;27.75;3.65;;;10.30;99.90;;;;;;5040690;28;20045;-68
2023/11/14 00:07:47;;;;;;;17.83;3.08;;;10.30;99.90;;;;;;5040930;28;20553;-68
2023/11/14 00:10:13;;;;;;;17.67;2.92;;;10.40;99.90;;;;;;5036478;28;20030;-68
2023/11/14 00:12:39;;;;;;;29.23;4.18;;;10.40;99.90;;;;;;5041402;28;20080;-68
2023/11/14 00:15:05;;;;;;;22.17;4.15;;;10.30;99.90;;;;;;5032882;28;20033;-67
2023/11/14 00:17:31;;;;;;;23.23;4.85;;;10.20;99.90;;;;;;5037771;28;20104;-68
2023/11/14 00:19:57;;;;;;;22.65;3.63;;;10.10;99.90;;;;;;5044158;28;20112;-68
2023/11/14 00:22:23;;;;;;;16.70;3.15;;;10.10;99.90;;;;;;5031719;28;20033;-68
2023/11/14 00:24:48;;;;;;;22.02;3.38;;;10.10;99.90;;;;;;5038270;28;20086;-67
2023/11/14 00:27:14;;;;;;;26.23;3.63;;;10.10;99.90;;;;;;5034490;28;20025;-67
2023/11/14 00:29:41;;;;;;;25.33;3.13;;;10.10;99.90;;;;;;5039251;28;20034;-68
2023/11/14 00:32:07;;;;;;;19.15;3.05;;;10.10;99.90;;;;;;5026982;28;21579;-68
2023/11/14 00:34:32;;;;;;;23.27;3.97;;;10.10;99.90;;;;;;5025440;28;20541;-67
2023/11/14 00:36:58;;;;;;;13.80;2.65;;;10.20;99.90;;;;;;5031048;28;20029;-67
2023/11/14 00:39:23;;;;;;;21.08;4.13;;;10.20;99.90;;;;;;5043663;28;20475;-68
2023/11/14 00:41:53;;;;;;;19.90;4.40;;;10.20;99.90;;;;;;5037014;28;20036;-68
2023/11/14 00:44:19;;;;;;;28.75;4.28;;;10.10;99.90;;;;;;5028807;28;20021;-68
2023/11/14 00:46:45;;;;;;;22.05;3.30;;;10.20;99.90;;;;;;5027311;28;20044;-67
2023/11/14 00:49:10;;;;;;;22.83;3.60;;;10.20;99.90;;;;;;5033756;28;20017;-68
2023/11/14 00:51:36;;;;;;;28.23;4.15;;;10.20;99.90;;;;;;5033324;28;20036;-68
2023/11/14 00:54:02;;;;;;;22.17;3.28;;;10.10;99.90;;;;;;5037960;28;20030;-68
2023/11/14 00:56:27;;;;;;;22.08;4.30;;;10.10;99.90;;;;;;5035732;28;20495;-68
2023/11/14 00:58:53;;;;;;;16.65;3.50;;;10.10;99.90;;;;;;5032891;28;20091;-67
2023/11/14 01:01:21;;;;;;;22.60;3.55;;;10.10;99.90;;;;;;5030051;28;20026;-68
2023/11/14 01:03:47;;;;;;;25.50;4.28;;;10.10;99.90;;;;;;5028527;28;20029;-68
2023/11/14 01:06:12;;;;;;;17.75;2.78;;;10.10;99.90;;;;;;5035861;28;20033;-68
2023/11/14 01:08:38;;;;;;;23.10;4.00;;;10.10;99.90;;;;;;5030521;28;20509;-67
2023/11/14 01:11:03;;;;;;;20.75;3.55;;;10.10;99.90;;;;;;5032328;28;20022;-68
2023/11/14 01:13:29;;;;;;;23.60;2.88;;;10.10;99.90;;;;;;5001062;28;1110461;-67
2023/11/14 01:15:55;;;;;;;24.85;3.83;;;10.10;99.90;;;;;;5029991;28;20056;-67
2023/11/14 01:18:20;;;;;;;25.80;5.18;;;10.10;99.90;;;;;;5030600;28;20029;-68
2023/11/14 01:20:46;;;;;;;29.85;4.82;;;10.10;99.90;;;;;;5032234;28;20102;-66
2023/11/14 01:23:11;;;;;;;20.88;3.67;;;10.00;99.90;;;;;;5028980;28;20040;-68
2023/11/14 01:25:39;;;;;;;26.58;4.07;;;10.00;99.90;;;;;;5034394;28;20139;-67
2023/11/14 01:28:04;;;;;;;31.75;4.28;;;10.10;99.90;;;;;;5031870;28;20430;-68
2023/11/14 01:30:30;;;;;;;21.40;3.40;;;10.10;99.90;;;;;;5031776;28;20021;-68
2023/11/14 01:32:56;;;;;;;24.33;4.85;;;10.20;99.90;;;;;;5031264;28;20029;-68
2023/11/14 01:35:22;;;;;;;17.63;4.00;;;10.20;99.90;;;;;;5029288;28;20029;-68
2023/11/14 01:37:49;;;;;;;29.90;3.63;;;10.20;99.90;;;;;;5010213;28;20795;-68
2023/11/14 01:40:14;;;;;;;22.52;3.60;;;10.30;99.90;;;;;;5034865;28;20025;-68
2023/11/14 01:42:40;;;;;;;31.20;4.72;;;10.30;99.90;;;;;;5025543;28;20088;-67
2023/11/14 01:45:06;;;;;;;26.67;3.88;;;10.40;99.90;;;;;;5029041;28;20029;-67
2023/11/14 01:47:31;;;;;;;17.98;3.80;;;10.50;99.90;;;;;;5025298;28;20029;-68
2023/11/14 01:49:57;;;;;;;18.70;3.65;;;10.60;99.90;;;;;;5020078;28;20029;-68
2023/11/14 01:52:24;;;;;;;25.05;3.03;;;10.60;99.90;;;;;;5026561;28;20025;-67
2023/11/14 01:54:49;;;;;;;27.48;3.88;;;10.60;99.90;;;;;;5025179;28;20040;-68
2023/11/14 01:57:16;;;;;;;16.15;4.53;;;10.60;99.90;;;;;;5023945;28;20040;-68
2023/11/14 01:59:42;;;;;;;28.92;3.28;;;10.70;99.90;;;;;;5028468;28;20030;-67
2023/11/14 02:02:08;;;;;;;20.50;3.20;;;10.70;99.90;;;;;;5020870;28;20025;-67
2023/11/14 02:04:35;;;;;;;21.13;3.15;;;10.60;99.90;;;;;;5018033;28;20030;-66
2023/11/14 02:07:01;;;;;;;27.83;5.13;;;10.70;99.90;;;;;;5025705;28;20041;-67
2023/11/14 02:09:27;;;;;;;26.98;4.03;;;10.60;99.90;;;;;;5026474;28;20022;-66
2023/11/14 02:11:54;;;;;;;29.60;4.43;;;10.60;99.90;;;;;;5022999;28;20976;-67
2023/11/14 02:14:19;;;;;;;23.05;2.83;;;10.70;99.90;;;;;;5020117;28;20021;-66
2023/11/14 02:16:46;;;;;;;31.63;3.70;;;10.60;99.90;;;;;;5020308;28;20032;-67
2023/11/14 02:19:12;;;;;;;24.65;4.90;;;10.60;99.90;;;;;;5020993;28;20030;-68
2023/11/14 02:21:38;;;;;;;12.98;2.75;;;10.50;99.90;;;;;;5021753;28;20025;-67
2023/11/14 02:24:07;;;;;;;25.85;4.80;;;10.60;99.90;;;;;;5020379;28;20090;-67
2023/11/14 02:26:33;;;;;;;30.65;4.00;;;10.60;99.90;;;;;;5020396;28;20021;-66
2023/11/14 02:28:59;;;;;;;19.48;3.85;;;10.60;99.90;;;;;;5025131;28;20044;-66
2023/11/14 02:31:24;;;;;;;26.10;3.17;;;10.50;99.90;;;;;;5020258;28;20025;-67
2023/11/14 02:33:50;;;;;;;34.78;5.25;;;10.50;99.90;;;;;;5029543;28;20032;-67
2023/11/14 02:36:16;;;;;;;17.98;3.42;;;10.40;99.90;;;;;;5028597;28;20024;-67
2023/11/14 02:38:41;;;;;;;31.30;4.47;;;10.30;99.90;;;;;;5028035;28;20723;-67
2023/11/14 02:41:07;;;;;;;22.77;3.60;;;10.30;99.90;;;;;;5029010;28;20061;-66
2023/11/14 02:43:32;;;;;;;37.20;4.95;;;10.30;99.90;;;;;;5022367;28;20029;-67
2023/11/14 02:45:58;;;;;;;20.83;3.58;;;10.20;99.90;;;;;;5025844;28;20509;-67
2023/11/14 02:48:24;;;;;;;25.70;3.83;;;10.20;99.90;;;;;;5027376;28;20080;-66
2023/11/14 02:50:55;;;;;;;24.33;3.50;;;10.20;99.90;;;;;;5029000;28;20508;-67
2023/11/14 02:53:21;;;;;;;23.00;4.03;;;10.30;99.90;;;;;;5028108;28;20025;-66
2023/11/14 02:55:47;;;;;;;21.92;3.30;;;10.40;99.90;;;;;;5029131;28;20487;-67
2023/11/14 02:58:14;;;;;;;17.67;4.50;;;10.50;99.90;;;;;;5024062;28;20040;-68
2023/11/14 03:00:45;;;;;;;21.65;3.55;;;10.50;99.90;;;;;;5023001;28;20030;-67
2023/11/14 03:03:15;;;;;;;16.92;3.75;;;10.60;99.90;;;;;;5024521;28;20091;-67
2023/11/14 03:05:41;;;;;;;24.83;3.17;;;10.60;99.90;;;;;;5024396;28;20026;-67
2023/11/14 03:08:06;;;;;;;23.92;3.47;;;10.60;99.90;;;;;;5022742;28;20025;-67
2023/11/14 03:10:32;;;;;;;21.77;3.30;;;10.60;99.90;;;;;;5021555;28;20778;-67
2023/11/14 03:12:58;;;;;;;24.70;3.20;;;10.60;99.90;;;;;;5021095;28;20029;-67
2023/11/14 03:15:26;;;;;;;18.30;2.85;;;10.60;99.90;;;;;;5019299;28;20025;-67
2023/11/14 03:17:55;;;;;;;17.90;3.90;;;10.60;99.90;;;;;;5020417;28;20030;-68
2023/11/14 03:20:20;;;;;;;21.83;3.00;;;10.70;99.90;;;;;;5021288;28;20018;-67
2023/11/14 03:22:46;;;;;;;19.63;3.20;;;10.70;99.90;;;;;;5018743;28;20025;-67
2023/11/14 03:25:15;;;;;;;23.52;3.67;;;10.70;99.90;;;;;;5021223;28;20530;-67
2023/11/14 03:27:40;;;;;;;28.13;4.03;;;10.70;99.90;;;;;;5027477;28;20071;-67
2023/11/14 03:30:07;;;;;;;21.83;3.90;;;10.70;99.90;;;;;;5026567;28;20049;-67
2023/11/14 03:32:33;;;;;;;18.40;3.72;;;10.70;99.90;;;;;;5024253;28;20048;-67
2023/11/14 03:34:59;;;;;;;29.33;4.30;;;10.70;99.90;;;;;;5025845;28;20034;-67
2023/11/14 03:37:24;;;;;;;23.65;4.28;;;10.80;99.90;;;;;;5025381;28;20078;-67
2023/11/14 03:39:50;;;;;;;31.33;4.47;;;10.80;99.90;;;;;;5027095;28;20042;-67
2023/11/14 03:42:16;;;;;;;30.52;4.00;;;10.80;99.90;;;;;;5026420;28;20030;-68
2023/11/14 03:44:41;;;;;;;23.65;4.63;;;10.70;99.90;;;;;;5029111;28;20036;-67
2023/11/14 03:47:07;;;;;;;22.95;4.20;;;10.70;99.90;;;;;;5029249;28;20026;-67
2023/11/14 03:49:32;;;;;;;22.90;4.22;;;10.70;99.90;;;;;;5029343;28;20032;-67
2023/11/14 03:51:58;;;;;;;22.65;4.18;;;10.80;99.90;;;;;;5028887;28;20076;-68
2023/11/14 03:54:24;;;;;;;21.17;3.25;;;10.80;99.90;;;;;;5030756;28;20529;-68
2023/11/14 03:56:50;;;;;;;24.38;4.38;;;10.80;99.90;;;;;;5022017;28;20037;-68
2023/11/14 03:59:16;;;;;;;17.10;3.38;;;10.80;99.90;;;;;;5025384;28;20156;-67
2023/11/14 04:01:41;;;;;;;21.25;3.40;;;10.70;99.90;;;;;;5022770;28;20506;-66
2023/11/14 04:04:07;;;;;;;35.72;5.57;;;10.80;99.90;;;;;;5027234;28;20486;-66
2023/11/14 04:06:32;;;;;;;28.38;4.18;;;10.70;99.90;;;;;;5035388;28;20528;-67
2023/11/14 04:08:58;;;;;;;21.77;3.53;;;10.70;99.90;;;;;;5033946;28;20025;-67
2023/11/14 04:11:23;;;;;;;19.55;3.85;;;10.80;99.90;;;;;;5032409;28;20033;-68
2023/11/14 04:13:50;;;;;;;21.30;4.68;;;10.80;99.90;;;;;;5030417;28;20037;-67
2023/11/14 04:16:15;;;;;;;20.55;3.83;;;10.80;99.90;;;;;;5028651;28;20083;-68
2023/11/14 04:18:42;;;;;;;25.55;3.40;;;10.80;99.90;;;;;;5030083;28;20025;-68
2023/11/14 04:21:09;;;;;;;19.08;3.67;;;10.80;99.90;;;;;;5037835;28;20094;-65
2023/11/14 04:23:35;;;;;;;24.63;3.80;;;10.80;99.90;;;;;;5028438;28;20116;-68
2023/11/14 04:26:01;;;;;;;23.30;3.85;;;10.80;99.90;;;;;;5030853;28;20744;-68
2023/11/14 04:28:27;;;;;;;22.55;3.47;;;10.90;99.90;;;;;;5030814;28;20100;-68
2023/11/14 04:30:53;;;;;;;24.73;5.18;;;10.90;99.90;;;;;;5029459;28;20114;-68
2023/11/14 04:33:18;;;;;;;14.02;3.35;;;10.90;99.90;;;;;;5033442;28;20037;-68
2023/11/14 04:35:45;;;;;;;17.80;3.50;;;10.80;99.90;;;;;;5035120;28;20091;-68
2023/11/14 04:38:10;;;;;;;18.63;3.20;;;10.90;99.90;;;;;;5034164;28;20036;-67
2023/11/14 04:40:36;;;;;;;22.60;2.88;;;10.90;99.90;;;;;;5033959;28;20042;-66
2023/11/14 04:43:02;;;;;;;23.38;3.88;;;10.90;99.90;;;;;;5032230;28;20061;-67
2023/11/14 04:45:27;;;;;;;20.77;3.67;;;10.90;99.90;;;;;;5032630;28;20022;-67
2023/11/14 04:47:53;;;;;;;24.58;3.25;;;10.90;99.90;;;;;;5029384;28;20072;-67
2023/11/14 04:50:22;;;;;;;19.58;3.83;;;11.00;99.90;;;;;;5035191;28;20526;-67
2023/11/14 04:52:48;;;;;;;24.80;3.22;;;11.00;99.90;;;;;;5028866;28;20491;-67
2023/11/14 04:55:13;;;;;;;24.35;4.40;;;11.00;99.90;;;;;;5033094;28;20029;-67
2023/11/14 04:57:39;;;;;;;20.75;3.63;;;11.00;99.90;;;;;;5031772;28;20052;-67
2023/11/14 05:00:05;;;;;;;13.43;3.05;;;11.10;99.90;;;;;;5031432;28;20061;-67
2023/11/14 05:02:31;;;;;;;20.55;3.78;;;11.10;99.90;;;;;;5031753;28;20028;-67
2023/11/14 05:04:59;;;;;;;16.17;4.03;;;11.10;99.90;;;;;;5028795;28;20022;-67
2023/11/14 05:07:25;;;;;;;21.63;3.22;;;11.00;99.90;;;;;;5036082;28;20458;-67
2023/11/14 05:09:52;;;;;;;32.25;3.58;;;11.00;99.90;;;;;;5024908;28;20026;-67
2023/11/14 05:12:17;;;;;;;15.35;2.45;;;11.00;99.90;;;;;;5021608;28;20037;-67
2023/11/14 05:14:45;;;;;;;20.95;5.15;;;11.10;99.90;;;;;;5023332;28;20025;-67
2023/11/14 05:17:10;;;;;;;21.00;3.95;;;11.10;99.90;;;;;;5023134;28;20034;-66
2023/11/14 05:19:36;;;;;;;22.58;3.00;;;11.10;99.90;;;;;;5024396;28;20107;-66
2023/11/14 05:22:01;;;;;;;27.52;4.00;;;11.20;99.90;;;;;;5021731;28;20597;-67
2023/11/14 05:24:28;;;;;;;17.45;3.60;;;11.10;99.90;;;;;;5023151;28;20032;-66
2023/11/14 05:26:53;;;;;;;20.98;4.53;;;11.10;99.90;;;;;;5022923;28;20026;-66
2023/11/14 05:29:19;;;;;;;19.83;4.03;;;11.10;99.90;;;;;;5025846;28;20030;-66
2023/11/14 05:31:45;;;;;;;22.17;3.85;;;11.10;99.90;;;;;;5023922;28;20029;-66
2023/11/14 05:34:11;;;;;;;28.70;5.00;;;11.10;99.90;;;;;;5027620;28;20034;-68
2023/11/14 05:36:37;;;;;;;26.60;5.15;;;11.10;99.90;;;;;;5030943;28;20078;-67
2023/11/14 05:39:06;;;;;;;20.00;3.25;;;11.10;99.90;;;;;;5030241;28;20041;-67
2023/11/14 05:41:32;;;;;;;26.58;3.95;;;11.10;99.90;;;;;;5036406;28;20036;-66
2023/11/14 05:43:59;;;;;;;20.42;3.33;;;11.10;99.90;;;;;;5030492;28;20028;-68
2023/11/14 05:46:24;;;;;;;16.00;3.72;;;11.10;99.90;;;;;;5028669;28;20044;-67
2023/11/14 05:48:50;;;;;;;25.63;4.88;;;11.10;99.90;;;;;;5030517;28;20479;-67
2023/11/14 05:51:16;;;;;;;27.00;3.58;;;11.20;99.90;;;;;;5030464;28;20030;-66
2023/11/14 05:53:45;;;;;;;22.05;4.00;;;11.10;99.90;;;;;;5029596;28;20044;-67
2023/11/14 05:56:11;;;;;;;21.45;3.53;;;11.10;99.90;;;;;;5025794;28;20053;-67
2023/11/14 05:58:36;;;;;;;24.73;4.47;;;11.00;99.90;;;;;;5027627;28;20025;-67
2023/11/14 06:01:02;;;;;;;13.07;2.75;;;11.10;99.90;;;;;;5029409;28;20040;-67
2023/11/14 06:03:28;;;;;;;13.35;4.15;;;11.10;99.90;;;;;;5030612;28;20029;-67
2023/11/14 06:05:53;;;;;;;28.65;5.30;;;11.10;99.90;;;;;;5028348;28;20062;-67
2023/11/14 06:08:19;;;;;;;30.35;4.95;;;11.10;99.90;;;;;;5028828;28;20033;-67
2023/11/14 06:10:45;;;;;;;17.30;3.95;;;11.20;99.90;;;;;;5031198;28;20040;-67
2023/11/14 06:13:10;;;;;;;26.10;4.43;;;11.20;99.90;;;;;;5030349;28;20080;-66
2023/11/14 06:15:36;;;;;;;26.58;3.28;;;11.10;99.90;;;;;;5036182;28;20021;-66
2023/11/14 06:18:01;;;;;;;24.67;4.78;;;11.20;99.90;;;;;;5027890;28;20095;-67
2023/11/14 06:20:27;;;;;;;23.42;3.92;;;11.10;99.90;;;;;;5029668;28;20430;-66
2023/11/14 06:22:53;;;;;;;19.75;4.53;;;11.20;99.90;;;;;;5024512;28;20029;-67
2023/11/14 06:25:18;;;;;;;34.22;4.53;;;11.10;99.90;;;;;;5029866;28;20057;-66
2023/11/14 06:27:44;;;;;;;26.45;3.90;;;11.10;99.90;;;;;;5030445;28;20037;-68
2023/11/14 06:30:11;;;;;;;20.52;3.65;;;11.00;99.90;;;;;;5024137;28;20025;-67
2023/11/14 06:32:37;;;;;;;22.77;4.75;;;11.00;99.90;;;;;;5031554;28;20036;-68
2023/11/14 06:35:03;;;;;;;25.00;4.10;;;11.00;99.90;;;;;;5034690;28;20112;-67
2023/11/14 06:37:28;;;;;;;26.92;4.35;;;11.10;99.90;;;;;;5036468;28;20549;-67
2023/11/14 06:39:55;;;;;;;16.20;3.45;;;11.00;99.90;;;;;;5028320;28;20025;-66
2023/11/14 06:42:25;;;;;;;17.50;3.88;;;11.10;99.90;;;;;;5036206;28;20036;-67
2023/11/14 06:44:50;;;;;;;18.90;3.60;;;11.10;99.90;;;;;;5032765;28;20024;-68
2023/11/14 06:47:16;;;;;;;21.75;3.95;;;11.10;99.90;;;;;;5030812;28;20017;-68
2023/11/14 06:49:43;;;;;;;32.47;5.07;;;11.10;99.90;;;;;;5030626;28;20080;-67
2023/11/14 06:52:10;;;;;;;21.42;3.70;;;11.00;99.90;;;;;;5030555;28;20026;-68
2023/11/14 06:54:36;;;;;;;27.80;3.25;;;10.90;99.90;;;;;;5027475;28;20071;-67
2023/11/14 06:57:02;;;;;;;20.15;3.30;;;10.90;99.90;;;;;;5032982;28;20117;-68
2023/11/14 06:59:30;;;;;;;21.38;4.15;;;10.90;99.90;;;;;;5030101;28;20096;-68
2023/11/14 07:01:55;;;;;;;14.93;3.33;;;11.00;99.90;;;;;;5024520;28;20071;-68
2023/11/14 07:04:21;;;;;;;24.27;4.82;;;11.00;99.90;;;;;;5032124;28;20033;-67
2023/11/14 07:06:47;;;;;;;28.05;4.70;;;11.10;99.90;;;;;;5029669;28;20031;-67
2023/11/14 07:09:15;;;;;;;24.40;5.65;;;11.10;99.90;;;;;;5024814;28;20025;-68
2023/11/14 07:11:41;;;;;;;28.17;6.22;;;11.10;99.90;;;;;;5025815;28;20022;-67
2023/11/14 07:14:08;;;;;;;58.70;31.23;;;11.10;99.90;;;;;;5031728;28;20029;-67
2023/11/14 07:16:33;;;;;;;37.08;17.05;;;11.10;99.90;;;;;;5035045;28;20026;-67
2023/11/14 07:18:59;;;;;;;36.15;13.65;;;11.20;99.90;;;;;;5030517;28;20036;-66
2023/11/14 07:21:24;;;;;;;25.55;4.63;;;11.10;99.90;;;;;;5023930;28;20033;-67
2023/11/14 07:23:50;;;;;;;18.73;3.28;;;11.10;99.90;;;;;;5032900;28;20033;-67
2023/11/14 07:26:16;;;;;;;24.70;4.47;;;11.10;99.90;;;;;;5018828;28;20030;-66
2023/11/14 07:28:41;;;;;;;17.17;2.88;;;11.10;99.90;;;;;;5021597;28;20077;-66
2023/11/14 07:31:07;;;;;;;22.30;3.35;;;11.20;99.90;;;;;;5021864;28;20026;-67
2023/11/14 07:33:33;;;;;;;31.80;4.60;;;11.30;99.90;;;;;;5022873;28;20026;-68
2023/11/14 07:35:58;;;;;;;35.33;4.32;;;11.30;99.90;;;;;;5024691;28;20178;-68
2023/11/14 07:38:24;;;;;;;20.45;4.05;;;11.40;99.90;;;;;;5020603;28;20490;-67
2023/11/14 07:40:50;;;;;;;20.50;4.10;;;11.40;99.90;;;;;;5023879;28;20078;-68
2023/11/14 07:43:17;;;;;;;19.80;3.22;;;11.50;99.90;;;;;;5025292;28;20029;-67
2023/11/14 07:45:43;;;;;;;21.42;4.25;;;11.50;99.90;;;;;;5026820;28;20074;-68
2023/11/14 07:48:08;;;;;;;22.48;4.40;;;11.40;99.90;;;;;;5025703;28;20017;-68
2023/11/14 07:50:34;;;;;;;12.82;3.30;;;11.40;99.90;;;;;;5027947;28;20068;-67
2023/11/14 07:52:59;;;;;;;28.02;3.67;;;11.40;99.90;;;;;;5028460;28;20045;-68
2023/11/14 07:55:25;;;;;;;15.18;3.47;;;11.40;99.90;;;;;;5025646;28;20109;-67
2023/11/14 07:57:51;;;;;;;18.02;3.53;;;11.50;99.90;;;;;;5039866;28;20044;-68
2023/11/14 08:00:17;;;;;;;32.03;4.57;;;11.50;99.90;;;;;;5025533;28;20079;-68
2023/11/14 08:02:43;;;;;;;24.27;4.40;;;11.40;99.90;;;;;;5025292;28;20029;-68
2023/11/14 08:05:09;;;;;;;20.75;4.05;;;11.50;99.90;;;;;;5026857;28;20104;-67
2023/11/14 08:07:35;;;;;;;24.85;3.55;;;11.50;99.90;;;;;;5027465;28;20063;-67
2023/11/14 08:10:01;;;;;;;28.95;3.15;;;11.50;99.90;;;;;;5026999;28;20025;-67
2023/11/14 08:12:27;;;;;;;20.27;3.67;;;11.50;99.90;;;;;;5038616;28;20045;-67
2023/11/14 08:14:52;;;;;;;12.73;3.00;;;11.50;99.90;;;;;;5025279;28;20032;-67
2023/11/14 08:17:18;;;;;;;24.13;4.28;;;11.50;99.90;;;;;;5024595;28;20086;-67
2023/11/14 08:19:46;;;;;;;18.60;3.08;;;11.50;99.90;;;;;;5001667;28;20049;-67
2023/11/14 08:22:12;;;;;;;16.17;3.35;;;11.60;99.90;;;;;;5029317;28;20520;-67
2023/11/14 08:24:38;;;;;;;13.93;3.20;;;11.60;99.90;;;;;;5025620;28;20061;-67
2023/11/14 08:27:05;;;;;;;20.77;3.85;;;11.50;99.90;;;;;;5025383;28;20037;-67
2023/11/14 08:29:32;;;;;;;17.05;4.43;;;11.60;99.90;;;;;;5026002;28;20028;-67
2023/11/14 08:31:58;;;;;;;13.38;3.70;;;11.60;99.90;;;;;;5023535;28;20023;-69
2023/11/14 08:34:24;;;;;;;16.25;3.65;;;11.70;99.90;;;;;;5024459;28;20565;-68
2023/11/14 08:36:50;;;;;;;18.13;5.72;;;11.70;99.90;;;;;;5028662;28;20053;-68
2023/11/14 08:39:16;;;;;;;23.83;5.20;;;11.70;99.90;;;;;;5026987;28;20079;-68
2023/11/14 08:41:41;;;;;;;18.38;4.63;;;11.70;99.90;;;;;;4982543;28;20045;-68
2023/11/14 08:44:08;;;;;;;25.10;5.30;;;11.70;99.90;;;;;;5026865;28;20068;-68
2023/11/14 08:46:34;;;;;;;16.83;4.93;;;11.60;99.90;;;;;;5025647;28;20450;-68
2023/11/14 08:49:00;;;;;;;15.27;4.35;;;11.70;99.90;;;;;;5027022;28;20025;-68
2023/11/14 08:51:26;;;;;;;13.60;3.72;;;11.70;99.90;;;;;;5027319;28;20026;-68
2023/11/14 08:53:52;;;;;;;16.70;3.25;;;11.80;99.90;;;;;;5027270;28;20025;-68
2023/11/14 08:56:17;;;;;;;16.58;3.85;;;11.90;99.90;;;;;;5027106;28;20048;-68
2023/11/14 08:58:43;;;;;;;12.63;2.90;;;11.90;99.90;;;;;;5025194;28;20053;-68
2023/11/14 09:01:11;;;;;;;13.68;4.10;;;12.00;99.90;;;;;;5022178;28;20458;-68
2023/11/14 09:03:37;;;;;;;16.55;3.63;;;12.00;99.90;;;;;;5021784;28;20510;-66
2023/11/14 09:06:03;;;;;;;18.05;4.65;;;12.00;99.90;;;;;;5019667;28;20041;-69
2023/11/14 09:08:28;;;;;;;15.60;4.18;;;12.00;99.90;;;;;;5021158;28;21118;-69
2023/11/14 09:10:55;;;;;;;18.50;3.58;;;12.00;99.90;;;;;;5023165;28;20487;-69
2023/11/14 09:13:20;;;;;;;13.38;2.55;;;12.00;99.90;;;;;;5023045;28;20057;-70
2023/11/14 09:15:46;;;;;;;11.35;2.95;;;11.90;99.90;;;;;;5026662;28;20151;-67
2023/11/14 09:18:13;;;;;;;15.45;3.67;;;11.90;99.90;;;;;;5026444;28;20033;-67
2023/11/14 09:20:39;;;;;;;11.45;3.83;;;11.80;99.90;;;;;;5011902;28;20541;-67
2023/11/14 09:23:05;;;;;;;11.98;3.33;;;11.80;99.90;;;;;;5024017;28;20041;-67
2023/11/14 09:25:31;;;;;;;8.20;3.30;;;11.70;99.90;;;;;;5023310;28;20033;-67
2023/11/14 09:27:58;;;;;;;29.30;5.15;;;11.70;99.90;;;;;;5021879;28;20033;-67
2023/11/14 09:30:23;;;;;;;18.65;2.88;;;11.70;99.90;;;;;;5026321;28;20395;-66
2023/11/14 09:32:49;;;;;;;10.27;2.50;;;11.70;99.90;;;;;;5023495;28;20033;-68
2023/11/14 09:35:15;;;;;;;13.63;2.70;;;11.70;99.90;;;;;;5026160;28;20029;-68
2023/11/14 09:37:41;;;;;;;18.60;3.38;;;11.80;99.90;;;;;;5025619;28;20798;-69
2023/11/14 09:40:08;;;;;;;13.38;3.17;;;11.90;99.90;;;;;;5023147;28;20187;-67
2023/11/14 09:42:37;;;;;;;10.80;3.13;;;11.90;99.90;;;;;;5025703;28;20042;-67
2023/11/14 09:45:04;;;;;;;16.85;2.90;;;11.90;99.90;;;;;;5025566;28;20112;-67
2023/11/14 09:47:31;;;;;;;7.43;2.00;;;12.00;99.90;;;;;;5022549;28;20116;-67
2023/11/14 09:49:57;;;;;;;14.15;3.70;;;12.00;99.90;;;;;;5024018;28;20458;-66
2023/11/14 09:52:23;;;;;;;14.27;3.55;;;12.00;99.90;;;;;;5026583;28;20044;-67
2023/11/14 09:54:50;;;;;;;10.68;3.53;;;12.00;99.90;;;;;;5023640;28;20029;-67
2023/11/14 09:57:17;;;;;;;9.30;2.83;;;12.10;99.90;;;;;;5023264;28;20029;-66
2023/11/14 09:59:44;;;;;;;11.68;3.10;;;12.10;99.90;;;;;;5022074;28;20031;-68
2023/11/14 10:02:10;;;;;;;26.73;6.35;;;12.10;99.90;;;;;;5019974;28;20029;-68
2023/11/14 10:04:39;;;;;;;15.85;3.13;;;12.20;99.90;;;;;;5025350;28;20563;-68
2023/11/14 10:07:08;;;;;;;19.67;4.63;;;12.30;99.90;;;;;;5024307;28;20025;-68
2023/11/14 10:09:34;;;;;;;17.50;4.25;;;12.30;99.90;;;;;;5024667;28;20478;-68
2023/11/14 10:12:02;;;;;;;18.80;3.25;;;12.30;99.90;;;;;;5026512;28;20112;-68
2023/11/14 10:14:41;;;;;;;19.90;3.80;;;12.30;99.90;;;;;;5022170;28;20137;-68
2023/11/14 10:17:07;;;;;;;12.20;3.47;;;12.40;99.90;;;;;;4994861;28;20422;-69
2023/11/14 10:19:32;;;;;;;13.50;2.55;;;12.40;99.90;;;;;;5023115;28;20041;-68
2023/11/14 10:22:04;;;;;;;12.43;3.25;;;12.40;99.90;;;;;;5021279;28;20068;-67
2023/11/14 10:24:30;;;;;;;15.05;2.90;;;12.40;99.90;;;;;;5024023;28;20036;-67
2023/11/14 10:26:55;;;;;;;11.45;2.97;;;12.40;99.90;;;;;;5023763;28;20034;-68
2023/11/14 10:29:23;;;;;;;9.88;2.15;;;12.30;99.90;;;;;;5023635;28;20028;-68
2023/11/14 10:31:50;;;;;;;12.52;2.75;;;12.30;99.90;;;;;;5024811;28;20499;-68
2023/11/14 10:34:28;;;;;;;14.57;2.60;;;12.20;99.90;;;;;;5023432;28;20033;-68
2023/11/14 10:36:56;;;;;;;13.13;2.83;;;12.20;99.90;;;;;;5025228;28;20026;-67
2023/11/14 10:39:22;;;;;;;7.75;1.80;;;12.20;99.90;;;;;;5026223;28;20033;-67
2023/11/14 10:41:49;;;;;;;4.10;1.52;;;12.10;99.90;;;;;;5024932;28;20025;-67
2023/11/14 10:44:16;;;;;;;6.35;1.85;;;12.10;99.90;;;;;;5022812;28;20037;-67
2023/11/14 10:46:52;;;;;;;7.95;2.15;;;12.10;99.90;;;;;;5022483;28;20160;-67
2023/11/14 10:49:19;;;;;;;8.32;1.50;;;12.10;99.90;;;;;;5020499;28;20087;-66
2023/11/14 10:51:47;;;;;;;8.82;1.48;;;12.10;99.90;;;;;;5024910;28;20070;-67
2023/11/14 10:54:13;;;;;;;5.53;1.70;;;12.00;99.90;;;;;;5040792;28;20638;-67
2023/11/14 10:56:39;;;;;;;5.07;1.27;;;12.00;99.90;;;;;;5024251;28;20059;-67
2023/11/14 10:59:10;;;;;;;4.22;1.75;;;12.00;99.90;;;;;;5020193;28;20527;-67
2023/11/14 11:01:46;;;;;;;9.30;4.10;;;11.90;99.90;;;;;;5021771;28;20037;-67
2023/11/14 11:04:17;;;;;;;6.40;1.80;;;11.90;99.90;;;;;;5021481;28;20045;-67
2023/11/14 11:06:44;;;;;;;6.03;1.55;;;11.90;99.90;;;;;;5021795;28;20029;-67
2023/11/14 11:09:11;;;;;;;8.20;1.55;;;11.80;99.90;;;;;;5018592;28;20021;-66
2023/11/14 11:11:44;;;;;;;7.63;1.08;;;11.80;99.90;;;;;;5018624;28;20124;-66
